createdAt,value
2022-12-09T16:37:57.705Z,94827.13
2022-12-09T16:40:25.405Z,94831.09
2022-12-09T16:42:55.770Z,94835.19
2022-12-09T16:45:30.832Z,94832.47
2022-12-09T16:47:59.415Z,94833.31
2022-12-09T16:50:32.970Z,94829.28
2022-12-09T16:53:22.372Z,94819.03
2022-12-09T16:55:59.921Z,94812.78
2022-12-09T16:58:32.827Z,94815.50
2022-12-09T17:01:02.941Z,94801.97
2022-12-09T17:03:50.063Z,94811.84
2022-12-09T17:06:19.503Z,94805.56
2022-12-09T17:08:47.510Z,94801.06
2022-12-09T17:11:21.969Z,94797.00
2022-12-09T17:13:50.988Z,94800.50
2022-12-09T17:16:23.258Z,94802.78
2022-12-09T17:18:51.506Z,94803.16
2022-12-09T17:21:19.492Z,94800.19
2022-12-09T17:23:48.376Z,94801.81
2022-12-09T17:26:19.299Z,94801.22
2022-12-09T17:28:47.441Z,94802.56
2022-12-09T17:31:21.699Z,94808.25
2022-12-09T17:33:50.247Z,94815.81
2022-12-09T17:36:19.426Z,94809.44
2022-12-09T17:38:47.221Z,94812.56
2022-12-09T17:41:19.178Z,94815.66
2022-12-09T17:43:46.983Z,94812.81
2022-12-09T17:46:15.472Z,94812.38
2022-12-09T17:48:43.169Z,94816.16
2022-12-09T17:51:14.309Z,94815.19
2022-12-09T17:53:42.923Z,94820.47
2022-12-09T17:56:16.595Z,94824.72
2022-12-09T17:58:44.987Z,94819.56
2022-12-09T18:01:19.818Z,94834.34
2022-12-09T18:03:57.725Z,94830.97
2022-12-09T18:06:28.164Z,94837.19
2022-12-09T18:08:55.818Z,94839.31
2022-12-09T18:11:23.868Z,94841.22
2022-12-09T18:13:51.591Z,94840.94
2022-12-09T18:16:20.164Z,94842.56
2022-12-09T18:18:47.915Z,94843.53
2022-12-09T18:21:16.636Z,94841.75
2022-12-09T18:23:44.302Z,94850.28
2022-12-09T18:26:15.030Z,94848.97
2022-12-09T18:28:43.287Z,94848.81
2022-12-09T18:31:16.086Z,94844.19
2022-12-09T18:33:44.932Z,94853.94
2022-12-09T18:36:15.621Z,94843.84
2022-12-09T18:38:43.310Z,94850.72
2022-12-09T18:41:31.675Z,94844.47
2022-12-09T18:44:08.940Z,94841.59
2022-12-09T18:46:39.494Z,94841.91
2022-12-09T18:49:18.093Z,94843.28
2022-12-09T18:51:46.736Z,94844.41
2022-12-09T18:54:20.555Z,94836.03
2022-12-09T18:56:48.237Z,94832.91
2022-12-09T18:59:15.796Z,94841.50
2022-12-09T19:01:46.099Z,94843.22
2022-12-09T19:04:20.144Z,94844.19
2022-12-09T19:06:49.953Z,94853.84
2022-12-09T19:09:20.435Z,94851.25
2022-12-09T19:11:49.506Z,94857.66
2022-12-09T19:14:18.704Z,94852.75
2022-12-09T19:16:46.850Z,94853.72
2022-12-09T19:19:17.186Z,94852.75
2022-12-09T19:21:45.660Z,94853.34
2022-12-09T19:24:25.429Z,94857.97
2022-12-09T19:26:54.933Z,94857.16
2022-12-09T19:29:24.843Z,94856.09
2022-12-09T19:31:53.920Z,94854.81
2022-12-09T19:34:24.984Z,94852.66
2022-12-09T19:36:53.186Z,94855.59
2022-12-09T19:39:23.600Z,94861.41
2022-12-09T19:41:51.844Z,94861.00
2022-12-09T19:44:44.382Z,94859.72
2022-12-09T19:47:10.526Z,94863.94
2022-12-09T19:49:41.027Z,94874.47
2022-12-09T19:52:08.584Z,94872.06
2022-12-09T19:54:36.360Z,94864.97
2022-12-09T19:57:04.015Z,94872.16
2022-12-09T19:59:31.599Z,94867.66
2022-12-09T20:01:59.201Z,94871.56
2022-12-09T20:07:16.163Z,94860.81
2022-12-09T20:09:43.751Z,94863.22
2022-12-09T20:12:11.475Z,94870.75
2022-12-09T20:14:39.953Z,94869.56
2022-12-09T20:17:08.133Z,94869.69
2022-12-09T20:19:36.872Z,94867.50
2022-12-09T20:22:04.719Z,94868.19
2022-12-09T20:24:32.343Z,94873.03
2022-12-09T20:26:59.923Z,94874.38
2022-12-09T20:29:31.122Z,94880.06
2022-12-09T20:32:01.599Z,94873.94
2022-12-09T20:34:29.200Z,94870.25
2022-12-09T20:36:56.984Z,94864.94
2022-12-09T20:39:24.788Z,94866.44
2022-12-09T20:41:52.450Z,94868.19
2022-12-09T20:44:20.306Z,94875.25
2022-12-09T20:46:51.102Z,94874.81
2022-12-09T20:49:22.170Z,94867.91
2022-12-09T20:51:49.851Z,94870.47
2022-12-09T20:54:17.564Z,94864.38
2022-12-09T20:56:45.903Z,94859.88
2022-12-09T20:59:13.871Z,94865.84
2022-12-09T21:01:41.905Z,94864.06
2022-12-09T21:04:11.151Z,94862.16
2022-12-09T21:06:40.916Z,94869.75
2022-12-09T21:09:17.615Z,94858.63
2022-12-09T21:11:46.410Z,94861.88
2022-12-09T21:14:20.528Z,94867.03
2022-12-09T21:16:50.569Z,94865.41
2022-12-09T21:19:24.983Z,94863.50
2022-12-09T21:21:53.707Z,94857.22
2022-12-09T21:24:23.361Z,94864.81
2022-12-09T21:26:53.495Z,94870.63
2022-12-09T21:29:21.162Z,94866.44
2022-12-09T21:31:50.468Z,94866.44
2022-12-09T21:34:18.291Z,94868.06
2022-12-09T21:36:48.349Z,94865.47
2022-12-09T21:39:16.471Z,94876.47
2022-12-09T21:41:44.463Z,94882.44
2022-12-09T21:44:18.430Z,94881.13
2022-12-09T21:46:46.319Z,94879.50
2022-12-09T21:49:14.019Z,94887.38
2022-12-09T21:51:42.443Z,94892.22
2022-12-09T21:54:10.676Z,94891.78
2022-12-09T21:56:38.556Z,94892.47
2022-12-09T21:59:07.093Z,94894.75
2022-12-09T22:01:37.363Z,94895.41
2022-12-09T22:04:07.319Z,94902.19
2022-12-09T22:06:35.888Z,94894.75
2022-12-09T22:09:05.208Z,94896.50
2022-12-09T22:11:36.345Z,94896.16
2022-12-09T22:14:05.492Z,94884.66
2022-12-09T22:16:36.582Z,94888.47
